createdAt,value
2019-05-01T00:00:28.239Z,6.90
2019-05-01T00:01:24.197Z,7.00
2019-05-01T00:02:17.415Z,7.00
2019-05-01T00:03:10.982Z,7.00
2019-05-01T00:04:04.306Z,7.00
2019-05-01T00:04:56.551Z,7.00
2019-05-01T00:05:34.079Z,7.00
2019-05-01T00:06:08.570Z,7.00
2019-05-01T00:06:46.236Z,7.10
2019-05-01T00:07:28.590Z,7.10
2019-05-01T00:08:03.101Z,7.10
2019-05-01T00:08:37.536Z,7.10
2019-05-01T00:09:12.669Z,7.10
2019-05-01T00:09:46.956Z,7.00
2019-05-01T00:10:22.776Z,7.00
2019-05-01T00:10:56.967Z,7.00
2019-05-01T00:11:35.504Z,7.00
2019-05-01T00:12:28.617Z,7.00
2019-05-01T00:13:03.062Z,7.00
2019-05-01T00:13:37.365Z,7.00
2019-05-01T00:14:11.709Z,7.00
2019-05-01T00:14:45.873Z,6.90
2019-05-01T00:15:23.395Z,6.90
2019-05-01T00:15:57.762Z,6.90
2019-05-01T00:16:32.337Z,6.90
2019-05-01T00:17:06.666Z,6.90
2019-05-01T00:17:40.990Z,6.90
2019-05-01T00:18:15.197Z,6.90
2019-05-01T00:18:49.467Z,6.90
2019-05-01T00:19:23.683Z,6.90
2019-05-01T00:19:57.802Z,6.80
2019-05-01T00:20:32.084Z,6.80
2019-05-01T00:21:06.196Z,6.80
2019-05-01T00:21:40.386Z,6.70
2019-05-01T00:22:14.516Z,6.70
2019-05-01T00:22:48.792Z,6.70
2019-05-01T00:23:22.949Z,6.70
2019-05-01T00:23:57.164Z,6.70
2019-05-01T00:24:31.495Z,6.70
2019-05-01T00:25:06.179Z,6.70
2019-05-01T00:25:40.310Z,6.70
2019-05-01T00:26:14.437Z,6.80
2019-05-01T00:26:48.715Z,6.80
2019-05-01T00:27:22.817Z,6.80
2019-05-01T00:27:57.222Z,6.80
2019-05-01T00:28:31.479Z,6.90
2019-05-01T00:29:06.065Z,6.90
2019-05-01T00:29:40.233Z,6.90
2019-05-01T00:30:28.822Z,6.90
2019-05-01T00:30:56.078Z,7.00
2019-05-01T00:31:30.229Z,7.00
2019-05-01T00:32:04.296Z,7.00
2019-05-01T00:32:38.399Z,7.00
2019-05-01T00:33:12.715Z,7.00
2019-05-01T00:33:46.756Z,7.10
2019-05-01T00:34:20.959Z,7.10
2019-05-01T00:34:55.116Z,7.10
2019-05-01T00:35:29.422Z,7.10
2019-05-01T00:36:03.826Z,7.20
2019-05-01T00:36:38.020Z,7.20
2019-05-01T00:37:12.214Z,7.10
2019-05-01T00:37:46.374Z,7.20
2019-05-01T00:38:20.466Z,7.10
2019-05-01T00:38:54.801Z,7.20
2019-05-01T00:39:29.006Z,7.20
2019-05-01T00:40:03.360Z,7.20
2019-05-01T00:40:37.556Z,7.20
2019-05-01T00:41:11.654Z,7.20
2019-05-01T00:41:45.691Z,7.20
2019-05-01T00:42:19.843Z,7.20
2019-05-01T00:42:54.134Z,7.20
2019-05-01T00:43:28.346Z,7.20
2019-05-01T00:44:02.496Z,7.20
2019-05-01T00:44:36.743Z,7.30
2019-05-01T00:45:11.112Z,7.30
2019-05-01T00:45:45.248Z,7.30
2019-05-01T00:46:19.865Z,7.30
2019-05-01T00:46:54.164Z,7.30
2019-05-01T00:47:28.372Z,7.30
2019-05-01T00:48:02.487Z,7.30
2019-05-01T00:48:36.767Z,7.30
2019-05-01T00:49:11.195Z,7.30
2019-05-01T00:49:45.479Z,7.20
2019-05-01T00:50:19.746Z,7.30
2019-05-01T00:50:54.036Z,7.30
2019-05-01T00:51:29.309Z,7.30
2019-05-01T00:52:03.367Z,7.30
2019-05-01T00:52:37.509Z,7.30
2019-05-01T00:53:11.686Z,7.30
2019-05-01T00:53:45.856Z,7.40
2019-05-01T00:54:19.977Z,7.40
2019-05-01T00:55:13.364Z,7.40
2019-05-01T00:56:06.496Z,7.40
2019-05-01T00:56:55.317Z,7.40
2019-05-01T00:57:40.887Z,7.40
2019-05-01T00:58:30.791Z,7.40
2019-05-01T00:59:24.967Z,7.40
2019-05-01T01:00:18.137Z,7.40
2019-05-01T01:01:11.397Z,7.40
2019-05-01T01:02:04.469Z,7.50
2019-05-01T01:02:49.176Z,7.50
2019-05-01T01:03:23.370Z,7.50
2019-05-01T01:03:57.930Z,7.50
2019-05-01T01:04:32.389Z,7.50
2019-05-01T01:05:07.196Z,7.60
2019-05-01T01:05:41.226Z,7.50
2019-05-01T01:06:15.442Z,7.50
2019-05-01T01:06:50.096Z,7.50
2019-05-01T01:07:24.204Z,7.50
2019-05-01T01:07:58.515Z,7.50
2019-05-01T01:08:32.712Z,7.50
2019-05-01T01:09:08.067Z,7.40
2019-05-01T01:09:42.242Z,7.50
2019-05-01T01:10:16.691Z,7.40
2019-05-01T01:10:50.929Z,7.40
2019-05-01T01:11:24.979Z,7.40
2019-05-01T01:11:59.007Z,7.40
2019-05-01T01:12:33.149Z,7.40
2019-05-01T01:13:07.179Z,7.40
2019-05-01T01:13:41.446Z,7.50
2019-05-01T01:14:15.752Z,7.50
2019-05-01T01:14:49.878Z,7.50
2019-05-01T01:15:23.999Z,7.60
2019-05-01T01:15:58.252Z,7.60
2019-05-01T01:16:32.424Z,7.60
2019-05-01T01:17:06.545Z,7.60
2019-05-01T01:17:40.590Z,7.60
2019-05-01T01:18:14.848Z,7.70
2019-05-01T01:18:49.139Z,7.70
2019-05-01T01:19:23.565Z,7.60
2019-05-01T01:19:57.873Z,7.60
2019-05-01T01:20:32.146Z,7.60
2019-05-01T01:21:06.347Z,7.50
2019-05-01T01:21:40.475Z,7.50
2019-05-01T01:22:14.758Z,7.50
2019-05-01T01:22:49.040Z,7.40
2019-05-01T01:23:23.437Z,7.50
2019-05-01T01:23:57.999Z,7.40
2019-05-01T01:24:32.377Z,7.40
2019-05-01T01:25:07.441Z,7.40
2019-05-01T01:25:41.732Z,7.40
2019-05-01T01:26:16.266Z,7.40
2019-05-01T01:26:50.726Z,7.30
2019-05-01T01:27:25.546Z,7.30
2019-05-01T01:27:59.669Z,7.30
2019-05-01T01:28:34.075Z,7.30
2019-05-01T01:29:08.475Z,7.30
2019-05-01T01:29:42.709Z,7.30
2019-05-01T01:30:17.655Z,7.20
2019-05-01T01:30:56.491Z,7.20
2019-05-01T01:31:27.995Z,7.20
2019-05-01T01:32:02.181Z,7.10
2019-05-01T01:32:38.920Z,7.10
2019-05-01T01:33:13.275Z,7.00
2019-05-01T01:33:47.406Z,7.00
2019-05-01T01:34:21.514Z,7.00
2019-05-01T01:34:55.811Z,6.90
2019-05-01T01:35:29.997Z,6.90
2019-05-01T01:36:04.532Z,6.90
2019-05-01T01:36:38.764Z,7.00
2019-05-01T01:37:12.977Z,7.00
2019-05-01T01:37:47.246Z,7.00
2019-05-01T01:38:21.465Z,7.00
2019-05-01T01:38:55.909Z,7.00
2019-05-01T01:39:30.662Z,6.90
2019-05-01T01:40:05.426Z,6.90
2019-05-01T01:40:40.125Z,6.90
2019-05-01T01:41:14.691Z,6.90
2019-05-01T01:41:50.302Z,6.80
2019-05-01T01:42:24.605Z,6.80
2019-05-01T01:43:18.627Z,6.70
2019-05-01T01:44:12.297Z,6.70
2019-05-01T01:44:52.979Z,6.70
2019-05-01T01:45:41.116Z,6.70
2019-05-01T01:46:16.782Z,6.70
2019-05-01T01:46:51.918Z,6.70
2019-05-01T01:47:26.599Z,6.70
2019-05-01T01:48:20.162Z,6.60
2019-05-01T01:48:54.854Z,6.60
2019-05-01T01:49:28.957Z,6.50
2019-05-01T01:50:03.239Z,6.50
2019-05-01T01:50:38.459Z,6.50
2019-05-01T01:51:13.106Z,6.50
2019-05-01T01:51:47.394Z,6.50
2019-05-01T01:52:22.538Z,6.40
2019-05-01T01:52:57.066Z,6.40
2019-05-01T01:53:31.939Z,6.40
2019-05-01T01:54:06.553Z,6.30
2019-05-01T01:54:40.736Z,6.30
2019-05-01T01:55:15.202Z,6.30
2019-05-01T01:55:50.567Z,6.20
2019-05-01T01:56:24.824Z,6.10
2019-05-01T01:56:59.160Z,6.00
2019-05-01T01:57:33.479Z,6.00
2019-05-01T01:58:09.271Z,5.90
2019-05-01T01:58:43.684Z,5.90
2019-05-01T01:59:18.584Z,5.80
2019-05-01T01:59:53.526Z,5.70
2019-05-01T02:00:33.784Z,5.60
2019-05-01T02:01:20.665Z,5.60
2019-05-01T02:02:07.826Z,5.60
2019-05-01T02:02:48.334Z,5.60
2019-05-01T02:03:23.334Z,5.50
2019-05-01T02:04:02.008Z,5.50
2019-05-01T02:04:55.495Z,5.50
2019-05-01T02:05:33.478Z,5.40
2019-05-01T02:06:07.886Z,5.40
2019-05-01T02:06:41.928Z,5.40
2019-05-01T02:07:16.337Z,5.40
2019-05-01T02:07:51.275Z,5.40
2019-05-01T02:08:25.650Z,5.40
2019-05-01T02:08:59.884Z,5.30
2019-05-01T02:09:34.209Z,5.30
2019-05-01T02:10:09.197Z,5.10
2019-05-01T02:10:43.602Z,5.10
2019-05-01T02:11:18.086Z,5.00
2019-05-01T02:11:52.582Z,5.00
2019-05-01T02:12:26.899Z,4.90
2019-05-01T02:13:01.226Z,4.90
2019-05-01T02:13:35.589Z,4.80
2019-05-01T02:14:09.992Z,4.80
2019-05-01T02:14:44.146Z,4.80
2019-05-01T02:15:18.797Z,4.70
2019-05-01T02:15:53.286Z,4.70
2019-05-01T02:16:27.789Z,4.60
2019-05-01T02:17:02.065Z,4.60
2019-05-01T02:17:36.371Z,4.50
2019-05-01T02:18:10.719Z,4.50
2019-05-01T02:18:44.940Z,4.50
2019-05-01T02:19:19.252Z,4.50
2019-05-01T02:19:53.461Z,4.50
2019-05-01T02:20:27.644Z,4.50
2019-05-01T02:21:01.828Z,4.60
2019-05-01T02:21:35.947Z,4.60
2019-05-01T02:22:10.149Z,4.60
2019-05-01T02:22:44.554Z,4.60
2019-05-01T02:23:18.846Z,4.60
2019-05-01T02:23:53.172Z,4.50
2019-05-01T02:24:27.257Z,4.50
2019-05-01T02:25:01.577Z,4.40
2019-05-01T02:25:38.125Z,4.30
2019-05-01T02:26:13.254Z,4.30
2019-05-01T02:26:49.751Z,4.30
2019-05-01T02:27:34.438Z,4.30
2019-05-01T02:28:27.777Z,4.40
2019-05-01T02:29:09.681Z,4.30
2019-05-01T02:29:48.674Z,4.40
2019-05-01T02:30:23.833Z,4.40
2019-05-01T02:31:27.395Z,4.40
2019-05-01T02:31:55.656Z,4.40
2019-05-01T02:32:30.525Z,4.50
2019-05-01T02:33:05.127Z,4.50
2019-05-01T02:33:40.836Z,4.40
2019-05-01T02:34:16.461Z,4.40
2019-05-01T02:34:51.336Z,4.50
2019-05-01T02:35:30.212Z,4.60
2019-05-01T02:36:03.673Z,4.60
2019-05-01T02:36:38.560Z,4.70
2019-05-01T02:37:15.757Z,4.80
2019-05-01T02:37:50.886Z,4.80
2019-05-01T02:38:25.380Z,4.90
2019-05-01T02:39:01.079Z,5.00
2019-05-01T02:39:36.739Z,5.10
2019-05-01T02:40:40.280Z,5.10
2019-05-01T02:41:16.900Z,5.20
2019-05-01T02:41:53.056Z,5.30
2019-05-01T02:42:30.665Z,5.40
2019-05-01T02:43:05.586Z,5.40
2019-05-01T02:43:43.261Z,5.40
2019-05-01T02:44:25.619Z,5.50
2019-05-01T02:45:02.834Z,5.50
2019-05-01T02:45:38.526Z,5.50
2019-05-01T02:46:15.324Z,5.60
2019-05-01T02:46:51.818Z,5.60
2019-05-01T02:47:29.587Z,5.60
2019-05-01T02:48:04.589Z,5.60
2019-05-01T02:48:42.159Z,5.70
2019-05-01T02:49:24.592Z,5.70
2019-05-01T02:50:18.592Z,5.70
2019-05-01T02:50:56.216Z,5.60
2019-05-01T02:51:30.627Z,5.60
2019-05-01T02:52:07.356Z,5.50
2019-05-01T02:52:43.220Z,5.50
2019-05-01T02:53:19.997Z,5.40
2019-05-01T02:53:54.856Z,5.40
2019-05-01T02:54:29.651Z,5.40
2019-05-01T02:55:07.881Z,5.40
2019-05-01T02:55:47.753Z,5.40
2019-05-01T02:56:41.677Z,5.40
2019-05-01T02:57:19.057Z,5.40
2019-05-01T02:57:53.577Z,5.30
2019-05-01T02:58:27.955Z,5.30
2019-05-01T02:59:05.517Z,5.30
2019-05-01T02:59:42.261Z,5.30
2019-05-01T03:00:18.180Z,5.30
2019-05-01T03:00:52.587Z,5.30
2019-05-01T03:01:44.365Z,5.30
2019-05-01T03:02:03.830Z,5.30
2019-05-01T03:02:39.608Z,5.20
2019-05-01T03:03:13.927Z,5.20
2019-05-01T03:03:49.547Z,5.20
2019-05-01T03:04:24.109Z,5.20
2019-05-01T03:04:59.221Z,5.20
2019-05-01T03:05:33.632Z,5.20
2019-05-01T03:06:07.887Z,5.10
2019-05-01T03:06:42.067Z,5.10
2019-05-01T03:07:17.889Z,5.20
2019-05-01T03:07:52.677Z,5.20
2019-05-01T03:08:27.153Z,5.20
2019-05-01T03:09:06.338Z,5.20
2019-05-01T03:09:41.518Z,5.20
2019-05-01T03:10:16.488Z,5.20
2019-05-01T03:10:51.617Z,5.20
2019-05-01T03:11:26.467Z,5.10
2019-05-01T03:12:02.612Z,5.10
2019-05-01T03:12:40.587Z,5.10
2019-05-01T03:13:15.168Z,5.10
2019-05-01T03:13:51.207Z,5.10
2019-05-01T03:14:28.347Z,5.10
2019-05-01T03:15:04.669Z,5.10
2019-05-01T03:15:39.238Z,5.10
2019-05-01T03:16:13.997Z,5.10
2019-05-01T03:16:50.831Z,5.10
2019-05-01T03:17:44.059Z,5.10
2019-05-01T03:18:31.798Z,5.10
2019-05-01T03:19:10.906Z,5.20
2019-05-01T03:20:04.310Z,5.20
2019-05-01T03:20:58.570Z,5.20
2019-05-01T03:21:39.508Z,5.20
2019-05-01T03:22:33.610Z,5.20
2019-05-01T03:23:26.937Z,5.20
2019-05-01T03:24:05.978Z,5.20
2019-05-01T03:24:40.200Z,5.20
2019-05-01T03:25:14.889Z,5.30
2019-05-01T03:25:49.350Z,5.30
2019-05-01T03:26:23.782Z,5.30
2019-05-01T03:26:59.205Z,5.30
2019-05-01T03:27:33.964Z,5.40
2019-05-01T03:28:08.589Z,5.50
2019-05-01T03:28:43.060Z,5.50
2019-05-01T03:29:17.463Z,5.50
2019-05-01T03:29:51.652Z,5.50
2019-05-01T03:30:25.986Z,5.60
2019-05-01T03:31:00.240Z,5.60
2019-05-01T03:31:34.407Z,5.70
2019-05-01T03:32:19.271Z,5.60
2019-05-01T03:32:44.529Z,5.70
2019-05-01T03:33:19.027Z,5.70
2019-05-01T03:33:53.616Z,5.70
2019-05-01T03:34:29.153Z,5.70
2019-05-01T03:35:03.657Z,5.60
2019-05-01T03:35:37.917Z,5.60
2019-05-01T03:36:12.386Z,5.50
2019-05-01T03:36:46.725Z,5.50
2019-05-01T03:37:21.266Z,5.50
2019-05-01T03:37:55.710Z,5.50
2019-05-01T03:38:30.997Z,5.50
2019-05-01T03:39:06.216Z,5.50
2019-05-01T03:39:41.008Z,5.50
2019-05-01T03:40:15.728Z,5.50
2019-05-01T03:40:50.426Z,5.50
2019-05-01T03:41:25.003Z,5.40
2019-05-01T03:41:59.711Z,5.40
2019-05-01T03:42:34.007Z,5.40
2019-05-01T03:43:08.518Z,5.30
2019-05-01T03:43:42.823Z,5.30
2019-05-01T03:44:17.771Z,5.30
2019-05-01T03:44:51.946Z,5.30
2019-05-01T03:45:26.756Z,5.30
2019-05-01T03:46:00.935Z,5.30
2019-05-01T03:46:35.770Z,5.30
2019-05-01T03:47:10.130Z,5.30
2019-05-01T03:47:44.760Z,5.30
2019-05-01T03:48:19.695Z,5.30
2019-05-01T03:48:54.122Z,5.40
2019-05-01T03:49:28.380Z,5.40
2019-05-01T03:50:02.643Z,5.40
2019-05-01T03:50:37.123Z,5.40
2019-05-01T03:51:11.636Z,5.40
2019-05-01T03:51:46.013Z,5.40
2019-05-01T03:52:20.371Z,5.40
2019-05-01T03:52:54.750Z,5.40
2019-05-01T03:53:29.621Z,5.50
2019-05-01T03:54:04.119Z,5.50
2019-05-01T03:54:38.414Z,5.50
2019-05-01T03:55:12.782Z,5.60
2019-05-01T03:55:47.468Z,5.60
2019-05-01T03:56:21.736Z,5.60
2019-05-01T03:56:55.950Z,5.70
2019-05-01T03:57:30.301Z,5.70
2019-05-01T03:58:05.110Z,5.80
2019-05-01T03:58:39.987Z,5.90
2019-05-01T03:59:14.435Z,5.90
2019-05-01T03:59:49.036Z,5.90
2019-05-01T04:00:34.802Z,6.10
2019-05-01T04:01:24.689Z,6.10
2019-05-01T04:02:32.177Z,6.20
2019-05-01T04:03:13.793Z,6.30
2019-05-01T04:03:51.376Z,6.40
2019-05-01T04:04:28.069Z,6.40
2019-05-01T04:05:02.463Z,6.50
2019-05-01T04:05:37.007Z,6.60
2019-05-01T04:06:11.555Z,6.60
2019-05-01T04:06:46.102Z,6.70
2019-05-01T04:07:20.685Z,6.80
2019-05-01T04:07:54.870Z,6.80
2019-05-01T04:08:36.683Z,6.80
2019-05-01T04:09:10.749Z,6.80
2019-05-01T04:09:45.058Z,6.90
2019-05-01T04:10:19.780Z,6.90
2019-05-01T04:10:55.666Z,7.00
2019-05-01T04:11:29.925Z,7.00
2019-05-01T04:12:04.612Z,7.00
2019-05-01T04:12:38.996Z,7.00
2019-05-01T04:13:13.877Z,7.10
2019-05-01T04:13:48.270Z,7.10
2019-05-01T04:14:22.849Z,7.10
2019-05-01T04:14:57.578Z,7.10
2019-05-01T04:15:32.039Z,7.10
2019-05-01T04:16:06.625Z,7.10
2019-05-01T04:16:42.820Z,7.20
2019-05-01T04:17:23.557Z,7.20
2019-05-01T04:17:59.558Z,7.20
2019-05-01T04:18:34.606Z,7.20
2019-05-01T04:19:08.780Z,7.30
2019-05-01T04:19:43.417Z,7.30
2019-05-01T04:20:18.025Z,7.30
2019-05-01T04:20:52.468Z,7.30
2019-05-01T04:21:30.695Z,7.30
2019-05-01T04:22:10.368Z,7.40
2019-05-01T04:22:46.309Z,7.40
2019-05-01T04:23:20.801Z,7.50
2019-05-01T04:23:55.181Z,7.50
2019-05-01T04:24:29.848Z,7.50
2019-05-01T04:25:04.117Z,7.50
2019-05-01T04:25:38.675Z,7.60
2019-05-01T04:26:13.425Z,7.60
2019-05-01T04:26:47.605Z,7.70
2019-05-01T04:27:30.436Z,7.80
2019-05-01T04:28:23.798Z,7.80
2019-05-01T04:29:04.381Z,7.90
2019-05-01T04:29:45.281Z,7.90
2019-05-01T04:30:25.330Z,8.00
2019-05-01T04:31:08.465Z,8.00
2019-05-01T04:32:02.108Z,8.00
2019-05-01T04:32:50.951Z,8.00
2019-05-01T04:33:13.489Z,8.10
2019-05-01T04:33:48.385Z,8.10
2019-05-01T04:34:28.397Z,8.10
2019-05-01T04:35:22.016Z,8.10
2019-05-01T04:36:01.652Z,8.10
2019-05-01T04:36:38.688Z,8.00
2019-05-01T04:37:13.813Z,8.10
2019-05-01T04:37:48.058Z,8.10
2019-05-01T04:38:22.741Z,8.10
2019-05-01T04:38:57.147Z,8.10
2019-05-01T04:39:31.546Z,8.10
2019-05-01T04:40:06.619Z,8.10
2019-05-01T04:40:41.097Z,8.10
2019-05-01T04:41:15.576Z,8.10
2019-05-01T04:41:49.922Z,8.20
2019-05-01T04:42:24.572Z,8.20
2019-05-01T04:42:58.996Z,8.10
2019-05-01T04:43:33.595Z,8.10
2019-05-01T04:44:08.203Z,8.10
2019-05-01T04:44:42.751Z,8.10
2019-05-01T04:45:17.991Z,8.10
2019-05-01T04:45:52.447Z,8.00
2019-05-01T04:46:27.022Z,7.90
2019-05-01T04:47:02.262Z,7.90
2019-05-01T04:47:36.820Z,7.90
2019-05-01T04:48:11.120Z,7.90
2019-05-01T04:48:45.532Z,7.90
2019-05-01T04:49:19.988Z,7.80
2019-05-01T04:49:54.199Z,7.80
2019-05-01T04:50:28.910Z,7.80
2019-05-01T04:51:03.292Z,7.80
2019-05-01T04:51:37.772Z,7.80
2019-05-01T04:52:12.389Z,7.70
2019-05-01T04:52:46.882Z,7.70
2019-05-01T04:53:21.372Z,7.70
2019-05-01T04:53:55.975Z,7.70
2019-05-01T04:54:30.407Z,7.70
2019-05-01T04:55:05.019Z,7.60
2019-05-01T04:55:40.040Z,7.60
2019-05-01T04:56:14.809Z,7.60
2019-05-01T04:56:49.209Z,7.60
2019-05-01T04:57:23.775Z,7.60
2019-05-01T04:57:58.241Z,7.70
2019-05-01T04:58:32.711Z,7.70
2019-05-01T04:59:07.519Z,7.80
2019-05-01T04:59:41.973Z,7.80
2019-05-01T05:00:16.381Z,7.80
2019-05-01T05:00:50.747Z,7.80
2019-05-01T05:01:28.937Z,7.90
2019-05-01T05:02:05.216Z,8.00
2019-05-01T05:02:44.768Z,8.00
2019-05-01T05:03:20.058Z,8.00
2019-05-01T05:03:55.217Z,8.00
2019-05-01T05:04:30.477Z,8.10
2019-05-01T05:05:05.644Z,8.10
2019-05-01T05:05:40.070Z,8.20
2019-05-01T05:06:15.277Z,8.20
2019-05-01T05:06:49.708Z,8.30
2019-05-01T05:07:24.135Z,8.30
2019-05-01T05:07:58.710Z,8.40
2019-05-01T05:08:33.117Z,8.40
2019-05-01T05:09:07.352Z,8.50
2019-05-01T05:09:46.581Z,8.50
2019-05-01T05:10:20.945Z,8.60
2019-05-01T05:10:57.205Z,8.70
2019-05-01T05:11:47.518Z,8.70
2019-05-01T05:12:28.976Z,8.80
2019-05-01T05:13:22.231Z,8.90
2019-05-01T05:14:15.936Z,8.90
2019-05-01T05:14:55.282Z,9.00
2019-05-01T05:15:49.076Z,9.00
2019-05-01T05:16:42.620Z,9.10
2019-05-01T05:17:20.455Z,9.10
2019-05-01T05:17:54.884Z,9.10
2019-05-01T05:18:29.231Z,9.10
2019-05-01T05:19:03.489Z,9.20
2019-05-01T05:19:37.979Z,9.20
2019-05-01T05:20:12.252Z,9.20
2019-05-01T05:20:46.533Z,9.30
2019-05-01T05:21:21.052Z,9.30
2019-05-01T05:21:55.457Z,9.40
2019-05-01T05:22:30.377Z,9.50
2019-05-01T05:23:05.174Z,9.60
2019-05-01T05:23:39.576Z,9.70
2019-05-01T05:24:14.036Z,9.90
2019-05-01T05:24:48.526Z,9.90
2019-05-01T05:25:22.996Z,10.00
2019-05-01T05:25:57.297Z,10.10
2019-05-01T05:26:32.054Z,10.20
2019-05-01T05:27:07.154Z,10.30
2019-05-01T05:27:41.869Z,10.40
2019-05-01T05:28:16.613Z,10.40
2019-05-01T05:28:51.420Z,10.50
2019-05-01T05:29:26.579Z,10.60
2019-05-01T05:30:01.151Z,10.80
2019-05-01T05:30:36.506Z,10.90
2019-05-01T05:31:12.617Z,11.00
2019-05-01T05:31:47.806Z,11.20
2019-05-01T05:32:23.237Z,11.30
2019-05-01T05:32:59.141Z,11.30
2019-05-01T05:33:36.106Z,11.20
2019-05-01T05:34:11.751Z,11.20
2019-05-01T05:34:47.559Z,11.30
2019-05-01T05:35:24.557Z,11.40
2019-05-01T05:35:59.523Z,11.50
2019-05-01T05:36:36.240Z,11.60
2019-05-01T05:37:17.879Z,11.60
2019-05-01T05:38:13.514Z,11.60
2019-05-01T05:38:57.729Z,11.70
2019-05-01T05:39:40.863Z,11.80
2019-05-01T05:40:16.818Z,11.80
2019-05-01T05:40:51.852Z,12.00
2019-05-01T05:41:26.621Z,12.10
2019-05-01T05:42:02.102Z,12.20
2019-05-01T05:42:37.119Z,12.30
2019-05-01T05:43:11.509Z,12.30
2019-05-01T05:43:45.886Z,12.40
2019-05-01T05:44:20.568Z,12.50
2019-05-01T05:44:54.910Z,12.40
2019-05-01T05:45:29.136Z,12.50
2019-05-01T05:46:04.040Z,12.40
2019-05-01T05:46:38.506Z,12.40
2019-05-01T05:47:15.827Z,12.50
2019-05-01T05:47:50.177Z,12.70
2019-05-01T05:48:24.822Z,12.70
2019-05-01T05:48:59.505Z,12.70
2019-05-01T05:49:34.189Z,12.80
2019-05-01T05:50:09.609Z,13.00
2019-05-01T05:50:56.586Z,13.20
2019-05-01T05:51:42.860Z,13.30
2019-05-01T05:52:37.078Z,13.10
2019-05-01T05:53:15.278Z,13.10
2019-05-01T05:53:53.245Z,13.10
2019-05-01T05:54:49.448Z,13.10
2019-05-01T05:55:36.117Z,13.10
2019-05-01T05:56:14.842Z,13.20
2019-05-01T05:56:53.688Z,13.40
2019-05-01T05:57:54.785Z,13.50
2019-05-01T05:58:39.026Z,13.70
2019-05-01T05:59:18.938Z,13.70
2019-05-01T05:59:57.328Z,13.80
2019-05-01T06:00:53.706Z,13.90
2019-05-01T06:01:49.180Z,14.10
2019-05-01T06:02:33.187Z,14.30
2019-05-01T06:03:31.219Z,14.50
2019-05-01T06:04:27.216Z,14.40
2019-05-01T06:05:22.483Z,14.20
2019-05-01T06:06:06.947Z,14.40
2019-05-01T06:07:02.580Z,14.70
2019-05-01T06:07:44.567Z,14.90
2019-05-01T06:08:23.697Z,15.20
2019-05-01T06:09:00.806Z,15.10
2019-05-01T06:09:55.598Z,15.00
2019-05-01T06:10:42.981Z,15.00
2019-05-01T06:11:39.312Z,15.10
2019-05-01T06:12:34.017Z,15.20
2019-05-01T06:13:17.951Z,15.40
2019-05-01T06:14:11.152Z,15.40
2019-05-01T06:15:07.665Z,15.40
2019-05-01T06:15:50.274Z,15.30
2019-05-01T06:16:40.414Z,15.30
2019-05-01T06:17:23.792Z,15.20
2019-05-01T06:18:05.934Z,15.10
2019-05-01T06:18:59.546Z,15.10
2019-05-01T06:19:39.514Z,15.10
2019-05-01T06:20:32.967Z,14.80
2019-05-01T06:21:14.495Z,15.00
2019-05-01T06:22:10.317Z,15.00
2019-05-01T06:23:05.707Z,15.20
2019-05-01T06:24:06.283Z,15.40
2019-05-01T06:24:40.658Z,15.70
2019-05-01T06:25:22.729Z,15.70
2019-05-01T06:26:02.526Z,15.70
2019-05-01T06:26:39.518Z,15.80
2019-05-01T06:27:15.084Z,15.90
2019-05-01T06:27:50.513Z,15.90
2019-05-01T06:28:26.327Z,15.90
2019-05-01T06:29:03.211Z,16.00
2019-05-01T06:29:37.798Z,16.10
2019-05-01T06:30:12.620Z,16.20
2019-05-01T06:30:48.855Z,16.20
2019-05-01T06:31:24.621Z,16.40
2019-05-01T06:32:00.081Z,16.50
2019-05-01T06:32:34.798Z,16.40
2019-05-01T06:33:09.738Z,16.30
2019-05-01T06:33:48.643Z,16.30
2019-05-01T06:34:23.919Z,16.10
2019-05-01T06:34:58.446Z,16.20
2019-05-01T06:35:38.261Z,16.30
2019-05-01T06:36:13.206Z,16.40
2019-05-01T06:36:49.612Z,16.60
2019-05-01T06:37:25.294Z,16.90
2019-05-01T06:38:02.250Z,17.00
2019-05-01T06:38:37.800Z,17.20
2019-05-01T06:39:13.329Z,17.40
2019-05-01T06:39:49.836Z,17.30
2019-05-01T06:40:39.302Z,17.40
2019-05-01T06:41:14.277Z,17.60
2019-05-01T06:41:48.933Z,17.70
2019-05-01T06:42:23.335Z,17.60
2019-05-01T06:42:57.742Z,17.70
2019-05-01T06:43:51.054Z,17.90
2019-05-01T06:44:44.831Z,18.00
2019-05-01T06:45:20.885Z,18.10
2019-05-01T06:46:14.560Z,18.10
2019-05-01T06:47:08.380Z,18.00
2019-05-01T06:47:53.487Z,17.80
2019-05-01T06:48:28.338Z,17.90
2019-05-01T06:49:24.386Z,18.00
2019-05-01T06:50:20.150Z,18.00
2019-05-01T06:50:57.917Z,17.70
2019-05-01T06:51:53.227Z,17.90
2019-05-01T06:52:29.333Z,18.20
2019-05-01T06:53:06.090Z,18.20
2019-05-01T06:53:41.240Z,18.00
2019-05-01T06:54:17.667Z,18.00
2019-05-01T06:54:53.631Z,17.90
2019-05-01T06:55:28.963Z,18.00
2019-05-01T06:56:03.373Z,18.10
2019-05-01T06:56:38.440Z,18.00
2019-05-01T06:57:12.964Z,18.00
2019-05-01T06:57:47.759Z,18.10
2019-05-01T06:58:23.297Z,17.80
2019-05-01T06:58:57.825Z,17.60
2019-05-01T06:59:34.065Z,17.90
2019-05-01T07:00:13.983Z,17.90
2019-05-01T07:00:48.646Z,18.10
2019-05-01T07:01:23.987Z,18.30
2019-05-01T07:02:00.235Z,18.30
2019-05-01T07:02:35.459Z,18.40
2019-05-01T07:03:11.729Z,18.30
2019-05-01T07:04:02.959Z,18.30
2019-05-01T07:04:22.708Z,18.00
2019-05-01T07:04:57.078Z,18.20
2019-05-01T07:05:32.090Z,18.30
2019-05-01T07:06:14.182Z,18.40
2019-05-01T07:06:42.657Z,18.40
2019-05-01T07:07:25.228Z,18.40
2019-05-01T07:07:55.844Z,18.40
2019-05-01T07:08:34.312Z,18.40
2019-05-01T07:09:11.970Z,18.20
2019-05-01T07:09:49.324Z,18.30
2019-05-01T07:10:30.697Z,18.40
2019-05-01T07:10:57.036Z,18.30
2019-05-01T07:11:31.580Z,18.40
2019-05-01T07:12:08.437Z,18.60
2019-05-01T07:12:42.775Z,18.60
2019-05-01T07:13:17.143Z,18.70
2019-05-01T07:13:51.696Z,18.80
2019-05-01T07:14:26.514Z,18.40
2019-05-01T07:15:01.969Z,18.30
2019-05-01T07:15:36.358Z,18.30
2019-05-01T07:16:10.554Z,18.50
2019-05-01T07:16:44.977Z,18.70
2019-05-01T07:17:19.419Z,18.80
2019-05-01T07:17:54.111Z,19.00
2019-05-01T07:18:29.181Z,18.90
2019-05-01T07:19:06.041Z,19.00
2019-05-01T07:20:00.454Z,19.10
2019-05-01T07:20:53.282Z,19.20
2019-05-01T07:21:32.389Z,19.40
2019-05-01T07:22:06.344Z,19.40
2019-05-01T07:22:42.187Z,19.40
2019-05-01T07:23:18.742Z,19.60
2019-05-01T07:23:53.450Z,19.70
2019-05-01T07:24:29.094Z,19.70
2019-05-01T07:25:05.249Z,19.50
2019-05-01T07:25:40.642Z,19.50
2019-05-01T07:26:15.221Z,19.30
2019-05-01T07:26:49.275Z,19.10
2019-05-01T07:27:25.217Z,19.00
2019-05-01T07:27:59.805Z,19.10
2019-05-01T07:28:36.231Z,19.10
2019-05-01T07:29:13.880Z,19.20
2019-05-01T07:29:49.711Z,19.00
2019-05-01T07:30:36.334Z,19.10
2019-05-01T07:31:15.014Z,19.10
2019-05-01T07:31:49.558Z,19.30
2019-05-01T07:32:24.213Z,19.20
2019-05-01T07:32:58.855Z,19.30
2019-05-01T07:33:33.186Z,19.30
2019-05-01T07:34:16.421Z,19.10
2019-05-01T07:34:43.462Z,19.10
2019-05-01T07:35:18.087Z,19.20
2019-05-01T07:35:54.004Z,19.00
2019-05-01T07:36:28.434Z,19.10
2019-05-01T07:37:03.757Z,19.20
2019-05-01T07:37:38.342Z,19.50
2019-05-01T07:38:12.870Z,19.50
2019-05-01T07:38:48.400Z,19.70
2019-05-01T07:39:22.794Z,19.80
2019-05-01T07:39:56.961Z,19.90
2019-05-01T07:40:31.466Z,20.00
2019-05-01T07:41:06.159Z,20.10
2019-05-01T07:41:40.598Z,19.80
2019-05-01T07:42:33.965Z,19.70
2019-05-01T07:43:19.084Z,19.70
2019-05-01T07:44:11.156Z,19.20
2019-05-01T07:44:46.967Z,19.10
2019-05-01T07:45:33.708Z,19.20
2019-05-01T07:46:27.267Z,19.20
2019-05-01T07:47:15.804Z,19.40
2019-05-01T07:47:50.808Z,19.60
2019-05-01T07:48:36.207Z,19.30
2019-05-01T07:49:13.068Z,19.50
2019-05-01T07:49:54.913Z,19.60
2019-05-01T07:50:32.648Z,19.60
2019-05-01T07:51:08.825Z,19.70
2019-05-01T07:52:02.914Z,19.90
2019-05-01T07:52:37.440Z,20.10
2019-05-01T07:53:11.816Z,20.40
2019-05-01T07:53:46.789Z,20.40
2019-05-01T07:54:22.767Z,20.20
2019-05-01T07:54:57.922Z,20.30
2019-05-01T07:55:38.346Z,20.40
2019-05-01T07:56:12.857Z,20.60
2019-05-01T07:56:47.585Z,20.60
2019-05-01T07:57:25.138Z,20.40
2019-05-01T07:57:59.735Z,20.20
2019-05-01T07:58:34.427Z,20.30
2019-05-01T07:59:08.731Z,20.40
2019-05-01T07:59:43.094Z,20.70
2019-05-01T08:00:36.886Z,20.80
2019-05-01T08:01:27.956Z,20.70
2019-05-01T08:02:06.694Z,20.50
2019-05-01T08:02:41.022Z,20.60
2019-05-01T08:03:15.435Z,20.60
2019-05-01T08:03:49.767Z,20.70
2019-05-01T08:04:35.976Z,20.70
2019-05-01T08:05:00.221Z,21.00
2019-05-01T08:05:34.541Z,21.00
2019-05-01T08:06:08.740Z,20.90
2019-05-01T08:06:42.955Z,20.90
2019-05-01T08:07:17.158Z,21.00
2019-05-01T08:07:51.342Z,20.70
2019-05-01T08:08:25.682Z,20.70
2019-05-01T08:09:00.019Z,20.50
2019-05-01T08:09:34.226Z,20.40
2019-05-01T08:10:08.936Z,20.40
2019-05-01T08:10:43.158Z,20.40
2019-05-01T08:11:17.374Z,20.30
2019-05-01T08:11:51.448Z,20.50
2019-05-01T08:12:25.854Z,20.60
2019-05-01T08:13:00.604Z,20.60